Time;durP1;ratioP1;P1;durP2;ratioP2;P2;SDS_P1;SDS_P2;PMS_P1;PMS_P2;Temp;Humidity;BMP_temperature;BMP_pressure;BME280_temperature;BME280_humidity;BME280_pressure;Samples;Min_cycle;Max_cycle;Signal;HPM_P1;HPM_P2
2023/08/29 00:03:08;;;;;;;1.30;0.82;;;;;;;;;;9997544;28;20381;-71
2023/08/29 00:07:59;;;;;;;0.70;0.70;;;;;;;;;;9991622;28;20074;-71
2023/08/29 00:12:52;;;;;;;1.38;0.80;;;;;;;;;;9991581;28;20042;-71
2023/08/29 00:17:44;;;;;;;1.45;0.80;;;;;;;;;;9993962;28;20053;-70
2023/08/29 00:22:36;;;;;;;1.48;0.90;;;;;;;;;;9989215;28;20052;-72
2023/08/29 00:27:28;;;;;;;0.77;0.77;;;;;;;;;;9997418;28;20058;-71
2023/08/29 00:32:20;;;;;;;5.70;0.88;;;;;;;;;;9989549;28;20061;-71
2023/08/29 00:37:12;;;;;;;0.60;0.60;;;;;;;;;;10015398;28;20050;-71
2023/08/29 00:42:04;;;;;;;1.20;0.80;;;;;;;;;;9999068;28;20062;-72
2023/08/29 00:46:56;;;;;;;1.17;0.82;;;;;;;;;;10013968;28;20055;-71
2023/08/29 00:51:48;;;;;;;0.82;0.80;;;;;;;;;;9983958;28;20053;-71
2023/08/29 00:56:41;;;;;;;0.70;0.70;;;;;;;;;;9973531;28;20457;-72
2023/08/29 01:01:35;;;;;;;0.70;0.70;;;;;;;;;;9996859;28;20058;-73
2023/08/29 01:06:33;;;;;;;1.08;0.93;;;;;;;;;;9996613;28;20386;-71
2023/08/29 01:11:42;;;;;;;0.70;0.70;;;;;;;;;;10002974;28;20050;-72
2023/08/29 01:17:01;;;;;;;1.58;0.82;;;;;;;;;;10004524;28;20100;-73
2023/08/29 01:22:06;;;;;;;4.03;0.90;;;;;;;;;;9983379;28;20053;-71
2023/08/29 01:26:59;;;;;;;0.80;0.70;;;;;;;;;;9984071;28;20395;-73
2023/08/29 01:31:52;;;;;;;2.05;0.70;;;;;;;;;;10004484;28;20045;-71
2023/08/29 01:36:44;;;;;;;0.55;0.55;;;;;;;;;;10018522;28;20056;-72
2023/08/29 01:41:36;;;;;;;0.85;0.60;;;;;;;;;;10020012;28;20048;-72
2023/08/29 01:46:28;;;;;;;4.45;0.90;;;;;;;;;;10024416;28;20807;-73
2023/08/29 01:51:20;;;;;;;2.53;0.60;;;;;;;;;;10018738;28;20092;-70
2023/08/29 01:56:14;;;;;;;3.03;0.73;;;;;;;;;;9998631;28;20042;-72
2023/08/29 02:01:06;;;;;;;3.78;0.70;;;;;;;;;;10001873;28;20056;-71
2023/08/29 02:06:14;;;;;;;0.90;0.90;;;;;;;;;;10020384;28;20483;-71
2023/08/29 02:11:06;;;;;;;0.70;0.70;;;;;;;;;;9998944;28;20043;-73
2023/08/29 02:15:58;;;;;;;1.17;0.73;;;;;;;;;;9998822;28;20042;-70
2023/08/29 02:20:49;;;;;;;0.75;0.70;;;;;;;;;;9997308;28;20045;-72
2023/08/29 02:25:42;;;;;;;0.70;0.60;;;;;;;;;;10008618;28;20441;-70
2023/08/29 02:30:37;;;;;;;2.95;0.70;;;;;;;;;;10017582;28;20042;-70
2023/08/29 02:35:29;;;;;;;2.60;0.70;;;;;;;;;;10011113;28;20045;-70
2023/08/29 02:40:22;;;;;;;0.60;0.60;;;;;;;;;;10015278;28;20085;-70
2023/08/29 02:45:14;;;;;;;0.60;0.60;;;;;;;;;;10028039;28;20042;-70
2023/08/29 02:50:07;;;;;;;0.70;0.70;;;;;;;;;;10022243;28;20099;-70
2023/08/29 02:55:00;;;;;;;0.73;0.73;;;;;;;;;;10008134;28;20451;-70
2023/08/29 02:59:52;;;;;;;2.33;0.65;;;;;;;;;;9987147;28;20058;-72
2023/08/29 03:04:44;;;;;;;1.45;0.90;;;;;;;;;;10025464;28;20148;-69
2023/08/29 03:09:36;;;;;;;0.70;0.60;;;;;;;;;;9995583;28;20125;-70
2023/08/29 03:14:29;;;;;;;2.15;0.70;;;;;;;;;;9997973;28;20073;-70
2023/08/29 03:19:21;;;;;;;0.70;0.70;;;;;;;;;;9998367;28;20038;-70
2023/08/29 03:24:14;;;;;;;2.70;0.70;;;;;;;;;;9997432;28;20065;-70
2023/08/29 03:29:06;;;;;;;1.88;0.80;;;;;;;;;;10019890;28;20030;-71
2023/08/29 03:33:58;;;;;;;2.38;0.60;;;;;;;;;;10007995;28;20109;-71
2023/08/29 03:38:50;;;;;;;1.65;0.70;;;;;;;;;;10001134;28;20094;-70
2023/08/29 03:43:41;;;;;;;1.20;0.90;;;;;;;;;;9998337;28;20049;-70
2023/08/29 03:48:35;;;;;;;1.80;0.80;;;;;;;;;;10001576;28;20447;-71
2023/08/29 03:53:28;;;;;;;0.70;0.70;;;;;;;;;;9990731;28;20092;-70
2023/08/29 03:58:21;;;;;;;0.80;0.80;;;;;;;;;;9998910;28;20078;-71
2023/08/29 04:03:13;;;;;;;1.08;0.98;;;;;;;;;;9992281;28;20062;-70
2023/08/29 04:08:07;;;;;;;17.25;1.70;;;;;;;;;;9987418;28;20080;-68
2023/08/29 04:12:59;;;;;;;5.47;3.17;;;;;;;;;;10020235;28;20411;-70
2023/08/29 04:17:51;;;;;;;2.33;1.02;;;;;;;;;;10002429;28;20050;-69
2023/08/29 04:22:45;;;;;;;1.27;1.10;;;;;;;;;;10017789;28;20753;-68
2023/08/29 04:27:38;;;;;;;0.90;0.90;;;;;;;;;;10003625;28;20042;-70
2023/08/29 04:32:34;;;;;;;1.45;1.00;;;;;;;;;;10016550;28;20037;-69
2023/08/29 04:37:26;;;;;;;10.40;1.08;;;;;;;;;;10017297;28;20041;-71
2023/08/29 04:42:18;;;;;;;2.58;0.80;;;;;;;;;;10008558;28;20148;-71
2023/08/29 04:47:09;;;;;;;1.42;1.20;;;;;;;;;;9994688;28;20500;-71
2023/08/29 04:52:01;;;;;;;1.88;1.00;;;;;;;;;;10025437;28;20073;-69
2023/08/29 04:56:53;;;;;;;1.10;1.00;;;;;;;;;;10009318;28;20049;-71
2023/08/29 05:01:45;;;;;;;0.88;0.88;;;;;;;;;;9997839;28;20061;-70
2023/08/29 05:06:41;;;;;;;1.58;1.10;;;;;;;;;;10010492;28;20361;-71
2023/08/29 05:11:33;;;;;;;3.60;1.10;;;;;;;;;;10000065;28;20480;-72
2023/08/29 05:16:25;;;;;;;1.73;1.10;;;;;;;;;;9986492;28;20144;-69
2023/08/29 05:21:16;;;;;;;2.42;1.30;;;;;;;;;;9999637;28;20037;-71
2023/08/29 05:26:08;;;;;;;1.15;1.02;;;;;;;;;;10025722;28;20038;-71
2023/08/29 05:31:04;;;;;;;1.52;1.42;;;;;;;;;;10011759;28;20125;-72
2023/08/29 05:35:56;;;;;;;3.05;1.00;;;;;;;;;;10040287;28;20084;-71
2023/08/29 05:40:52;;;;;;;3.65;0.93;;;;;;;;;;10040225;28;20053;-71
2023/08/29 05:45:43;;;;;;;1.02;0.90;;;;;;;;;;10037373;28;20077;-71
2023/08/29 05:50:35;;;;;;;1.15;1.05;;;;;;;;;;10006924;28;20042;-73
2023/08/29 05:55:27;;;;;;;2.97;1.40;;;;;;;;;;10017191;28;20048;-71
2023/08/29 06:00:19;;;;;;;1.77;1.08;;;;;;;;;;10002292;28;20088;-73
2023/08/29 06:05:11;;;;;;;1.20;1.10;;;;;;;;;;10000090;28;20054;-73
2023/08/29 06:10:03;;;;;;;1.13;1.02;;;;;;;;;;10007739;28;20043;-73
2023/08/29 06:14:55;;;;;;;1.10;1.00;;;;;;;;;;10012556;28;20474;-72
2023/08/29 06:19:47;;;;;;;1.70;0.95;;;;;;;;;;9995928;28;20085;-72
2023/08/29 06:24:39;;;;;;;2.92;1.08;;;;;;;;;;10019643;28;20521;-72
2023/08/29 06:29:31;;;;;;;2.42;0.98;;;;;;;;;;10020085;28;20405;-71
2023/08/29 06:34:23;;;;;;;2.47;0.90;;;;;;;;;;10048572;28;20180;-71
2023/08/29 06:39:15;;;;;;;2.50;1.00;;;;;;;;;;10055576;28;20046;-72
2023/08/29 06:44:07;;;;;;;1.10;0.80;;;;;;;;;;10057145;28;20092;-71
2023/08/29 06:48:59;;;;;;;7.05;1.10;;;;;;;;;;10054955;28;20083;-70
2023/08/29 06:53:51;;;;;;;0.80;0.80;;;;;;;;;;10064447;28;20046;-71
2023/08/29 06:58:43;;;;;;;3.72;1.58;;;;;;;;;;10064470;28;20096;-68
2023/08/29 07:03:35;;;;;;;1.75;1.25;;;;;;;;;;10028677;28;20049;-69
2023/08/29 07:08:27;;;;;;;1.40;0.90;;;;;;;;;;10023124;28;20068;-70
2023/08/29 07:13:19;;;;;;;5.57;1.40;;;;;;;;;;10022598;28;20065;-70
2023/08/29 07:18:10;;;;;;;1.85;1.13;;;;;;;;;;9987415;28;20532;-70
2023/08/29 07:23:02;;;;;;;1.52;1.17;;;;;;;;;;9998106;28;20390;-70
2023/08/29 07:27:54;;;;;;;3.42;1.25;;;;;;;;;;10001699;28;20470;-70
2023/08/29 07:32:46;;;;;;;1.40;1.30;;;;;;;;;;9998977;28;20129;-70
2023/08/29 07:37:38;;;;;;;3.75;1.75;;;;;;;;;;10023053;28;20057;-69
2023/08/29 07:42:30;;;;;;;3.45;1.38;;;;;;;;;;10023893;28;20053;-72
2023/08/29 07:47:22;;;;;;;3.10;1.27;;;;;;;;;;10023478;28;20053;-71
2023/08/29 07:52:13;;;;;;;2.80;1.10;;;;;;;;;;10023375;28;20046;-69
2023/08/29 07:57:05;;;;;;;1.33;1.05;;;;;;;;;;10023985;28;20112;-70
2023/08/29 08:01:57;;;;;;;1.45;1.35;;;;;;;;;;10023427;28;20124;-70
2023/08/29 08:06:49;;;;;;;2.47;1.30;;;;;;;;;;10012029;28;20038;-70
2023/08/29 08:11:41;;;;;;;1.83;1.35;;;;;;;;;;10015038;28;20050;-70
2023/08/29 08:16:33;;;;;;;3.95;1.73;;;;;;;;;;10015713;28;20121;-70
2023/08/29 08:21:25;;;;;;;1.58;1.48;;;;;;;;;;10000840;28;20046;-72
2023/08/29 08:26:17;;;;;;;2.33;1.80;;;;;;;;;;9997135;28;20054;-70
2023/08/29 08:31:09;;;;;;;1.80;1.63;;;;;;;;;;10001192;28;20046;-72
2023/08/29 08:36:01;;;;;;;1.63;1.52;;;;;;;;;;10023978;28;20084;-71
2023/08/29 08:40:59;;;;;;;2.90;1.75;;;;;;;;;;10013889;28;20503;-72
2023/08/29 08:45:51;;;;;;;3.40;1.40;;;;;;;;;;10026945;28;20088;-70
2023/08/29 08:50:44;;;;;;;1.30;1.20;;;;;;;;;;10012867;28;20046;-70
2023/08/29 08:55:36;;;;;;;1.10;1.00;;;;;;;;;;10029840;28;20050;-72
2023/08/29 09:00:28;;;;;;;1.38;1.00;;;;;;;;;;10052247;28;20144;-71
2023/08/29 09:05:20;;;;;;;1.55;1.00;;;;;;;;;;10019386;28;20045;-69
2023/08/29 09:10:15;;;;;;;2.58;1.10;;;;;;;;;;10028052;28;20042;-70
2023/08/29 09:15:07;;;;;;;1.08;1.00;;;;;;;;;;10028597;28;20104;-70
2023/08/29 09:19:59;;;;;;;4.88;1.20;;;;;;;;;;10006480;28;20056;-70
2023/08/29 09:24:51;;;;;;;1.52;1.17;;;;;;;;;;9993815;28;20073;-70
2023/08/29 09:29:43;;;;;;;1.50;1.00;;;;;;;;;;10019391;28;20064;-70
2023/08/29 09:34:35;;;;;;;2.15;1.58;;;;;;;;;;10014540;28;20081;-71
2023/08/29 09:39:27;;;;;;;3.60;1.08;;;;;;;;;;10025360;28;20056;-71
2023/08/29 09:44:19;;;;;;;1.25;1.10;;;;;;;;;;9989872;28;20080;-72
2023/08/29 09:49:11;;;;;;;1.33;1.10;;;;;;;;;;9989061;28;20483;-72
2023/08/29 09:54:05;;;;;;;2.30;1.27;;;;;;;;;;10025496;28;20077;-69
2023/08/29 09:58:59;;;;;;;2.53;1.10;;;;;;;;;;10016221;28;20038;-72
2023/08/29 10:03:51;;;;;;;1.35;1.17;;;;;;;;;;9994780;28;20058;-71
2023/08/29 10:08:52;;;;;;;2.72;2.33;;;;;;;;;;10026336;28;20046;-70
2023/08/29 10:13:45;;;;;;;1.80;1.00;;;;;;;;;;10013242;28;20120;-69
2023/08/29 10:18:37;;;;;;;1.05;0.80;;;;;;;;;;10013357;28;20041;-70
2023/08/29 10:23:31;;;;;;;2.08;1.08;;;;;;;;;;9996449;28;20046;-70
2023/08/29 10:28:23;;;;;;;2.60;0.90;;;;;;;;;;9996189;28;20046;-71
2023/08/29 10:33:15;;;;;;;2.05;1.10;;;;;;;;;;10006049;28;20052;-70
2023/08/29 10:38:12;;;;;;;1.10;1.00;;;;;;;;;;10015494;28;20041;-71
2023/08/29 10:43:17;;;;;;;1.67;1.05;;;;;;;;;;10020785;28;20042;-71
2023/08/29 10:48:09;;;;;;;4.50;0.98;;;;;;;;;;10022285;28;20041;-70
2023/08/29 10:53:02;;;;;;;3.53;1.05;;;;;;;;;;10006775;28;20054;-71
2023/08/29 10:57:58;;;;;;;2.85;1.23;;;;;;;;;;9991416;28;20078;-70
2023/08/29 11:02:51;;;;;;;1.58;1.00;;;;;;;;;;10002545;28;20133;-71
2023/08/29 11:07:43;;;;;;;1.88;1.30;;;;;;;;;;10003440;28;20129;-72
2023/08/29 11:12:35;;;;;;;4.22;1.55;;;;;;;;;;10021424;28;20099;-71
2023/08/29 11:17:27;;;;;;;1.77;1.42;;;;;;;;;;10019939;28;20158;-71
2023/08/29 11:22:25;;;;;;;2.03;1.20;;;;;;;;;;10041560;28;20053;-70
2023/08/29 11:27:17;;;;;;;2.08;1.30;;;;;;;;;;10058206;28;20068;-71
2023/08/29 11:32:09;;;;;;;1.70;1.00;;;;;;;;;;10063608;28;20133;-70
2023/08/29 11:37:01;;;;;;;5.95;1.45;;;;;;;;;;10050764;28;20505;-71
2023/08/29 11:41:54;;;;;;;2.40;1.20;;;;;;;;;;10045533;28;20053;-71
2023/08/29 11:47:14;;;;;;;2.47;1.48;;;;;;;;;;10027619;28;20114;-73
2023/08/29 11:52:06;;;;;;;2.75;1.40;;;;;;;;;;10023980;28;20494;-71
2023/08/29 11:56:57;;;;;;;3.08;1.70;;;;;;;;;;10021577;28;20472;-71
2023/08/29 12:01:50;;;;;;;1.85;1.50;;;;;;;;;;10022839;28;20054;-74
2023/08/29 12:06:42;;;;;;;7.32;3.03;;;;;;;;;;10007392;28;20042;-72
2023/08/29 12:11:41;;;;;;;1.45;1.23;;;;;;;;;;10008617;28;20053;-70
2023/08/29 12:16:33;;;;;;;2.10;1.77;;;;;;;;;;10009154;28;20049;-70
2023/08/29 12:21:25;;;;;;;2.42;1.60;;;;;;;;;;10025160;28;20046;-70
2023/08/29 12:26:17;;;;;;;2.50;1.65;;;;;;;;;;10010598;28;20085;-70
2023/08/29 12:31:10;;;;;;;1.88;1.60;;;;;;;;;;10009582;28;20547;-70
2023/08/29 12:36:03;;;;;;;1.92;1.80;;;;;;;;;;10005080;28;20468;-70
2023/08/29 12:40:55;;;;;;;3.28;2.40;;;;;;;;;;10001389;28;20657;-73
2023/08/29 12:45:47;;;;;;;3.63;2.53;;;;;;;;;;10020963;28;20068;-72
2023/08/29 12:50:50;;;;;;;5.13;2.30;;;;;;;;;;10015654;28;20046;-70
2023/08/29 12:55:42;;;;;;;2.85;1.90;;;;;;;;;;10008873;28;20064;-72
2023/08/29 13:00:36;;;;;;;3.63;2.30;;;;;;;;;;10013302;28;20443;-73
2023/08/29 13:05:27;;;;;;;3.03;1.90;;;;;;;;;;10012997;28;20029;-71
2023/08/29 13:10:20;;;;;;;11.13;2.78;;;;;;;;;;9996094;28;20145;-73
2023/08/29 13:15:15;;;;;;;3.38;2.60;;;;;;;;;;10024121;28;20072;-70
2023/08/29 13:20:08;;;;;;;4.78;3.03;;;;;;;;;;9994914;28;20468;-72
2023/08/29 13:24:59;;;;;;;3.70;2.00;;;;;;;;;;10024440;28;20053;-72
2023/08/29 13:29:51;;;;;;;3.70;1.92;;;;;;;;;;10018639;28;20042;-72
2023/08/29 13:34:43;;;;;;;2.20;2.00;;;;;;;;;;10018815;28;20057;-73
2023/08/29 13:39:35;;;;;;;4.60;2.30;;;;;;;;;;10013235;28;20509;-72
2023/08/29 13:44:27;;;;;;;2.88;2.03;;;;;;;;;;10025400;28;20050;-72
2023/08/29 13:49:19;;;;;;;1.92;1.75;;;;;;;;;;10004376;28;20050;-73
2023/08/29 13:54:11;;;;;;;3.30;2.10;;;;;;;;;;10008480;28;20054;-73
2023/08/29 13:59:03;;;;;;;2.88;2.03;;;;;;;;;;10018902;28;20610;-72
2023/08/29 14:03:55;;;;;;;2.92;1.90;;;;;;;;;;10016082;28;20056;-74
2023/08/29 14:08:48;;;;;;;2.47;1.98;;;;;;;;;;10025338;28;20390;-73
2023/08/29 14:13:40;;;;;;;3.95;1.52;;;;;;;;;;10014883;28;20128;-73
2023/08/29 14:18:33;;;;;;;2.10;1.90;;;;;;;;;;10025225;28;20556;-74
2023/08/29 14:23:26;;;;;;;3.13;1.77;;;;;;;;;;10037590;28;20058;-74
2023/08/29 14:28:18;;;;;;;4.40;1.85;;;;;;;;;;10029717;28;20066;-73
2023/08/29 14:33:14;;;;;;;2.95;2.05;;;;;;;;;;10033283;28;20050;-73
2023/08/29 14:38:06;;;;;;;2.58;1.92;;;;;;;;;;10014029;28;20413;-73
2023/08/29 14:42:58;;;;;;;4.80;1.80;;;;;;;;;;10011797;28;20504;-73
2023/08/29 14:47:52;;;;;;;3.72;1.50;;;;;;;;;;10008326;28;20042;-72
2023/08/29 14:52:44;;;;;;;2.00;1.50;;;;;;;;;;10009201;28;20057;-72
2023/08/29 14:57:37;;;;;;;4.38;2.25;;;;;;;;;;10038251;28;20068;-73
2023/08/29 15:02:29;;;;;;;10.88;1.50;;;;;;;;;;10064988;28;20053;-73
2023/08/29 15:07:23;;;;;;;4.10;1.42;;;;;;;;;;10065090;28;20049;-74
2023/08/29 15:12:15;;;;;;;3.05;1.85;;;;;;;;;;10064697;28;20045;-73
2023/08/29 15:17:07;;;;;;;2.53;0.85;;;;;;;;;;10063953;28;20053;-73
2023/08/29 15:21:59;;;;;;;4.25;1.40;;;;;;;;;;10064420;28;20044;-74
2023/08/29 15:26:50;;;;;;;1.85;1.15;;;;;;;;;;10064626;28;20510;-74
2023/08/29 15:31:42;;;;;;;1.83;1.00;;;;;;;;;;10064617;28;20751;-73
2023/08/29 15:36:35;;;;;;;2.50;1.00;;;;;;;;;;10030125;28;20087;-74
2023/08/29 15:41:27;;;;;;;1.45;1.25;;;;;;;;;;10023848;28;20046;-73
2023/08/29 15:46:20;;;;;;;1.15;1.08;;;;;;;;;;10023631;28;20096;-75
2023/08/29 15:51:14;;;;;;;3.30;1.33;;;;;;;;;;10023934;28;20128;-75
2023/08/29 15:56:07;;;;;;;2.15;1.25;;;;;;;;;;10023463;28;20056;-76
2023/08/29 16:01:06;;;;;;;2.55;1.52;;;;;;;;;;10023212;28;20473;-75
2023/08/29 16:05:58;;;;;;;3.22;1.13;;;;;;;;;;10020117;28;20056;-76
2023/08/29 16:10:51;;;;;;;2.97;1.30;;;;;;;;;;10019422;28;20112;-76
2023/08/29 16:15:44;;;;;;;2.25;1.20;;;;;;;;;;10019629;28;20380;-77
2023/08/29 16:20:40;;;;;;;1.90;0.90;;;;;;;;;;10018870;28;20046;-76
2023/08/29 16:25:32;;;;;;;2.83;1.20;;;;;;;;;;10020573;28;20425;-77
2023/08/29 16:30:23;;;;;;;2.20;1.33;;;;;;;;;;10022275;28;20164;-77
2023/08/29 16:35:15;;;;;;;3.65;1.00;;;;;;;;;;10005458;28;20436;-77
2023/08/29 16:40:08;;;;;;;3.25;1.60;;;;;;;;;;10022618;28;20417;-76
2023/08/29 16:45:00;;;;;;;4.72;1.42;;;;;;;;;;10023736;28;20065;-76
2023/08/29 16:49:52;;;;;;;2.50;0.98;;;;;;;;;;10030388;28;20073;-77
2023/08/29 16:54:44;;;;;;;2.55;0.95;;;;;;;;;;10030698;28;20064;-76
2023/08/29 16:59:55;;;;;;;1.77;1.10;;;;;;;;;;10029542;28;20057;-75
2023/08/29 17:04:47;;;;;;;2.03;1.10;;;;;;;;;;10029411;28;20056;-77
2023/08/29 17:09:39;;;;;;;3.70;1.25;;;;;;;;;;10029295;28;20049;-77
2023/08/29 17:14:30;;;;;;;3.38;1.00;;;;;;;;;;10029416;28;20072;-76
2023/08/29 17:19:22;;;;;;;1.15;0.85;;;;;;;;;;10029281;28;20065;-77
2023/08/29 17:24:14;;;;;;;2.72;1.65;;;;;;;;;;10029528;28;20049;-74
2023/08/29 17:29:06;;;;;;;3.53;1.00;;;;;;;;;;10028150;28;20667;-77
2023/08/29 17:33:58;;;;;;;3.65;1.60;;;;;;;;;;10029220;28;20056;-76
2023/08/29 17:38:50;;;;;;;3.33;0.80;;;;;;;;;;10027029;28;20436;-76
2023/08/29 17:43:42;;;;;;;2.53;1.17;;;;;;;;;;10027922;28;20424;-76
2023/08/29 17:48:34;;;;;;;1.73;1.20;;;;;;;;;;10028009;28;20388;-78
2023/08/29 17:53:26;;;;;;;2.45;1.00;;;;;;;;;;10026900;28;20118;-77
2023/08/29 17:58:18;;;;;;;1.13;0.90;;;;;;;;;;10027235;28;20419;-76
2023/08/29 18:03:10;;;;;;;7.25;1.10;;;;;;;;;;10027470;28;20087;-78
2023/08/29 18:08:02;;;;;;;1.95;1.00;;;;;;;;;;10027291;28;20468;-79
2023/08/29 18:12:54;;;;;;;6.13;2.13;;;;;;;;;;10027937;28;20041;-77
2023/08/29 18:17:45;;;;;;;2.13;1.10;;;;;;;;;;10027613;28;20076;-74
2023/08/29 18:22:37;;;;;;;1.55;1.33;;;;;;;;;;10023784;28;20141;-77
2023/08/29 18:27:29;;;;;;;3.10;1.23;;;;;;;;;;10021377;28;20433;-77
2023/08/29 18:32:21;;;;;;;2.22;1.05;;;;;;;;;;10021108;28;20129;-75
2023/08/29 18:37:13;;;;;;;3.08;1.27;;;;;;;;;;10021207;28;20097;-78
2023/08/29 18:42:05;;;;;;;4.70;1.25;;;;;;;;;;10020200;28;20049;-78
2023/08/29 18:46:57;;;;;;;4.10;1.20;;;;;;;;;;10020912;28;20056;-77
2023/08/29 18:51:49;;;;;;;3.03;1.15;;;;;;;;;;10020573;28;20471;-78
2023/08/29 18:56:41;;;;;;;4.72;1.38;;;;;;;;;;10020624;28;20872;-78
2023/08/29 19:01:33;;;;;;;4.07;1.38;;;;;;;;;;10023942;28;20479;-78
2023/08/29 19:06:25;;;;;;;2.70;0.98;;;;;;;;;;10025198;28;20536;-75
2023/08/29 19:11:17;;;;;;;1.42;1.23;;;;;;;;;;10023515;28;20050;-76
2023/08/29 19:16:09;;;;;;;3.42;1.35;;;;;;;;;;10025130;28;20104;-78
2023/08/29 19:21:01;;;;;;;4.90;1.35;;;;;;;;;;10024663;28;20046;-78
2023/08/29 19:25:54;;;;;;;1.73;1.10;;;;;;;;;;10024767;28;20049;-74
2023/08/29 19:30:47;;;;;;;1.90;1.00;;;;;;;;;;10025143;28;20042;-78
2023/08/29 19:35:39;;;;;;;4.07;1.33;;;;;;;;;;10024727;28;20046;-78
2023/08/29 19:40:31;;;;;;;2.80;1.35;;;;;;;;;;10023628;28;20082;-78
2023/08/29 19:45:23;;;;;;;1.88;1.20;;;;;;;;;;10024696;28;20050;-77
2023/08/29 19:50:15;;;;;;;3.88;1.10;;;;;;;;;;10024635;28;20140;-76
2023/08/29 19:55:08;;;;;;;3.60;1.42;;;;;;;;;;10024087;28;20388;-77
2023/08/29 19:59:59;;;;;;;3.80;1.17;;;;;;;;;;10023918;28;20057;-77
2023/08/29 20:04:51;;;;;;;1.42;1.30;;;;;;;;;;10024267;28;20052;-76
2023/08/29 20:09:44;;;;;;;3.95;1.20;;;;;;;;;;10022565;28;20056;-77
2023/08/29 20:14:36;;;;;;;1.77;1.67;;;;;;;;;;10023464;28;20073;-77
2023/08/29 20:19:27;;;;;;;1.35;1.25;;;;;;;;;;10025385;28;20477;-78
2023/08/29 20:24:23;;;;;;;2.83;0.95;;;;;;;;;;10030992;28;20558;-76
2023/08/29 20:29:16;;;;;;;1.20;1.10;;;;;;;;;;10030935;28;20042;-77
2023/08/29 20:34:08;;;;;;;2.38;1.17;;;;;;;;;;10031341;28;20069;-77
2023/08/29 20:38:59;;;;;;;2.03;1.17;;;;;;;;;;10030480;28;20437;-78
2023/08/29 20:43:51;;;;;;;4.30;1.10;;;;;;;;;;10012910;28;20081;-77
2023/08/29 20:48:49;;;;;;;1.10;1.00;;;;;;;;;;10030291;28;20487;-77
2023/08/29 20:53:41;;;;;;;1.85;0.95;;;;;;;;;;10030138;28;20546;-78
2023/08/29 20:58:34;;;;;;;2.10;1.40;;;;;;;;;;10031053;28;20045;-78
2023/08/29 21:03:28;;;;;;;1.25;1.02;;;;;;;;;;10031328;28;20656;-77
2023/08/29 21:08:22;;;;;;;1.35;1.25;;;;;;;;;;10030970;28;20113;-77
2023/08/29 21:13:16;;;;;;;2.25;1.20;;;;;;;;;;10029135;28;20054;-78
2023/08/29 21:18:09;;;;;;;6.82;1.15;;;;;;;;;;10029754;28;20365;-78
2023/08/29 21:23:02;;;;;;;2.20;1.10;;;;;;;;;;10029170;28;20049;-77
2023/08/29 21:27:54;;;;;;;2.03;1.08;;;;;;;;;;10029936;28;20093;-77
2023/08/29 21:32:45;;;;;;;2.30;1.08;;;;;;;;;;10028030;28;21073;-76
2023/08/29 21:37:38;;;;;;;1.60;0.90;;;;;;;;;;10028996;28;20037;-77
2023/08/29 21:42:32;;;;;;;2.60;1.35;;;;;;;;;;10028900;28;20086;-76
2023/08/29 21:47:23;;;;;;;1.35;1.13;;;;;;;;;;10028746;28;20050;-78
2023/08/29 21:52:15;;;;;;;1.42;0.85;;;;;;;;;;10027982;28;20050;-78
2023/08/29 21:57:07;;;;;;;1.20;0.90;;;;;;;;;;10028786;28;20448;-78
2023/08/29 22:01:59;;;;;;;1.02;0.80;;;;;;;;;;10027914;28;20053;-78
2023/08/29 22:06:51;;;;;;;1.30;0.95;;;;;;;;;;10027596;28;20384;-78
2023/08/29 22:11:44;;;;;;;0.90;0.88;;;;;;;;;;10027413;28;20042;-78
2023/08/29 22:16:36;;;;;;;0.98;0.90;;;;;;;;;;10027281;28;20144;-78
2023/08/29 22:21:27;;;;;;;2.70;1.00;;;;;;;;;;10026625;28;20038;-78
2023/08/29 22:26:19;;;;;;;4.45;0.90;;;;;;;;;;10024674;28;20058;-77
2023/08/29 22:31:11;;;;;;;2.35;1.27;;;;;;;;;;10024333;28;20060;-76
2023/08/29 22:36:04;;;;;;;2.25;1.15;;;;;;;;;;10025053;28;20076;-74
2023/08/29 22:41:08;;;;;;;2.47;0.90;;;;;;;;;;10023796;28;20042;-73
2023/08/29 22:46:19;;;;;;;4.25;0.90;;;;;;;;;;10024593;28;20453;-74
2023/08/29 22:51:11;;;;;;;1.00;0.70;;;;;;;;;;10023258;28;20046;-74
2023/08/29 22:56:03;;;;;;;1.50;0.93;;;;;;;;;;10024223;28;20418;-74
2023/08/29 23:00:55;;;;;;;0.70;0.70;;;;;;;;;;10025571;28;20061;-73
2023/08/29 23:05:47;;;;;;;2.47;0.90;;;;;;;;;;10025122;28;20062;-73
2023/08/29 23:10:40;;;;;;;0.70;0.70;;;;;;;;;;10025526;28;20373;-74
2023/08/29 23:15:32;;;;;;;0.80;0.80;;;;;;;;;;10024628;28;20176;-74
2023/08/29 23:20:24;;;;;;;4.50;1.00;;;;;;;;;;10024704;28;20053;-75
2023/08/29 23:25:16;;;;;;;1.92;0.90;;;;;;;;;;10024974;28;20440;-74
2023/08/29 23:30:10;;;;;;;0.70;0.70;;;;;;;;;;10024673;28;20049;-74
2023/08/29 23:35:03;;;;;;;3.03;0.75;;;;;;;;;;10023934;28;20042;-75
2023/08/29 23:39:54;;;;;;;0.65;0.65;;;;;;;;;;10023479;28;20085;-74
2023/08/29 23:44:48;;;;;;;0.75;0.75;;;;;;;;;;10024363;28;20060;-73
2023/08/29 23:49:41;;;;;;;1.17;1.08;;;;;;;;;;10024015;28;20076;-74
2023/08/29 23:54:33;;;;;;;1.10;0.65;;;;;;;;;;10024154;28;20038;-74
2023/08/29 23:59:25;;;;;;;3.45;0.93;;;;;;;;;;10023022;28;20046;-74
